createdAt,value
2018-03-22T09:13:35.296Z,94936.09
2018-03-22T09:16:01.574Z,94929.52
2018-03-22T09:18:28.475Z,94932.73
2018-03-22T09:20:54.768Z,94921.48
2018-03-22T09:23:21.730Z,94921.00
2018-03-22T09:25:48.070Z,94918.38
2018-03-22T09:28:14.395Z,94917.39
2018-03-22T09:30:40.685Z,94913.62
2018-03-22T09:33:06.978Z,94901.25
2018-03-22T09:35:33.881Z,94901.61
2018-03-22T09:38:00.181Z,94893.83
2018-03-22T09:40:27.381Z,94897.05
2018-03-22T09:42:53.635Z,94885.49
2018-03-22T09:45:19.970Z,94874.03
2018-03-22T09:47:46.270Z,94871.52
2018-03-22T09:50:12.546Z,94866.63
2018-03-22T09:52:38.821Z,94858.06
2018-03-22T09:55:05.148Z,94861.00
2018-03-22T09:57:31.950Z,94856.95
2018-03-22T09:59:58.206Z,94861.73
2018-03-22T10:02:24.679Z,94855.38
2018-03-22T10:04:51.221Z,94854.55
2018-03-22T10:07:18.356Z,94846.20
2018-03-22T10:09:45.512Z,94854.14
2018-03-22T10:12:12.049Z,94857.04
2018-03-22T10:14:38.329Z,94849.42
2018-03-22T10:17:04.591Z,94847.55
2018-03-22T10:19:30.892Z,94846.19
2018-03-22T10:21:57.832Z,94855.08
2018-03-22T10:24:24.106Z,94851.95
2018-03-22T10:26:50.647Z,94848.39
2018-03-22T10:29:16.968Z,94846.95
2018-03-22T10:31:43.513Z,94853.99
2018-03-22T10:34:09.795Z,94849.51
2018-03-22T10:36:36.721Z,94839.92
2018-03-22T10:39:03.634Z,94840.44
2018-03-22T10:41:29.899Z,94848.16
2018-03-22T10:43:57.566Z,94841.11
2018-03-22T10:46:23.888Z,94840.44
2018-03-22T10:48:50.649Z,94842.31
2018-03-22T10:51:17.183Z,94846.09
2018-03-22T10:53:43.662Z,94833.14
2018-03-22T10:56:09.956Z,94831.19
2018-03-22T10:58:36.238Z,94819.50
2018-03-22T11:01:08.579Z,94817.95
2018-03-22T11:03:41.171Z,94821.80
2018-03-22T11:06:07.747Z,94817.72
2018-03-22T11:08:34.028Z,94814.27
2018-03-22T11:11:00.316Z,94816.90
2018-03-22T11:13:26.800Z,94813.47
2018-03-22T11:15:53.108Z,94821.09
2018-03-22T11:18:19.540Z,94812.72
2018-03-22T11:20:45.852Z,94796.97
2018-03-22T11:23:12.113Z,94794.67
2018-03-22T11:25:38.398Z,94783.09
2018-03-22T11:28:05.339Z,94774.02
2018-03-22T11:30:31.939Z,94777.77
2018-03-22T11:32:58.236Z,94783.00
2018-03-22T11:35:25.471Z,94789.05
